createdAt,value
2023-03-24T00:00:16.176Z,6.90
2023-03-24T00:01:16.194Z,7.30
2023-03-24T00:02:16.204Z,7.30
2023-03-24T00:03:16.270Z,8.00
2023-03-24T00:04:16.172Z,7.70
2023-03-24T00:05:16.159Z,7.90
2023-03-24T00:06:16.140Z,8.10
2023-03-24T00:07:16.144Z,8.30
2023-03-24T00:08:16.129Z,8.40
2023-03-24T00:09:16.122Z,8.60
2023-03-24T00:10:16.083Z,8.80
2023-03-24T00:11:16.127Z,8.60
2023-03-24T00:12:16.089Z,8.20
2023-03-24T00:13:16.087Z,8.40
2023-03-24T00:14:16.074Z,7.80
2023-03-24T00:15:16.078Z,7.90
2023-03-24T00:16:16.084Z,8.40
2023-03-24T00:17:16.092Z,8.40
2023-03-24T00:18:16.040Z,9.20
2023-03-24T00:19:16.044Z,9.40
2023-03-24T00:20:16.004Z,8.80
2023-03-24T00:21:16.023Z,8.70
2023-03-24T00:22:16.039Z,9.40
2023-03-24T00:23:16.055Z,7.90
2023-03-24T00:24:15.991Z,8.40
2023-03-24T00:25:15.979Z,9.90
2023-03-24T00:26:16.012Z,8.40
2023-03-24T00:27:15.968Z,9.10
2023-03-24T00:28:15.983Z,9.20
2023-03-24T00:29:15.974Z,9.40
2023-03-24T00:30:15.961Z,9.20
2023-03-24T00:31:15.969Z,8.60
2023-03-24T00:32:15.938Z,8.60
2023-03-24T00:33:15.947Z,8.30
2023-03-24T00:34:18.942Z,7.50
2023-03-24T00:35:16.126Z,7.60
2023-03-24T00:36:15.913Z,7.90
2023-03-24T00:37:15.921Z,8.00
2023-03-24T00:38:15.897Z,7.50
2023-03-24T00:39:15.873Z,7.10
2023-03-24T00:40:15.888Z,7.60
2023-03-24T00:41:15.905Z,7.10
2023-03-24T00:42:15.854Z,6.20
2023-03-24T00:43:15.834Z,7.20
2023-03-24T00:44:15.858Z,6.80
2023-03-24T00:45:15.840Z,6.70
2023-03-24T00:46:15.835Z,6.60
2023-03-24T00:47:15.885Z,6.80
2023-03-24T00:48:15.813Z,7.50
2023-03-24T00:49:15.786Z,7.20
2023-03-24T00:50:15.878Z,7.80
2023-03-24T00:51:15.820Z,8.80
2023-03-24T00:52:15.801Z,8.80
2023-03-24T00:53:15.801Z,9.60
2023-03-24T00:54:15.757Z,8.70
2023-03-24T00:55:15.744Z,8.50
2023-03-24T00:56:15.779Z,8.00
2023-03-24T00:57:15.757Z,8.00
2023-03-24T00:58:15.739Z,9.70
2023-03-24T00:59:15.781Z,9.90
2023-03-24T01:00:15.713Z,10.40
2023-03-24T01:01:15.733Z,7.70
2023-03-24T01:02:15.737Z,7.60
2023-03-24T01:03:15.748Z,7.40
2023-03-24T01:04:15.699Z,6.50
2023-03-24T01:05:15.700Z,7.20
2023-03-24T01:06:15.677Z,6.70
2023-03-24T01:07:15.683Z,6.40
2023-03-24T01:08:15.666Z,6.20
2023-03-24T01:09:15.652Z,6.00
2023-03-24T01:10:15.665Z,6.20
2023-03-24T01:11:15.696Z,6.00
2023-03-24T01:12:15.652Z,6.20
2023-03-24T01:13:15.607Z,6.30
2023-03-24T01:14:15.622Z,5.80
2023-03-24T01:15:15.613Z,5.50
2023-03-24T01:16:15.609Z,5.30
2023-03-24T01:17:15.604Z,5.20
2023-03-24T01:18:15.586Z,4.50
2023-03-24T01:19:15.566Z,4.30
2023-03-24T01:20:15.595Z,5.30
2023-03-24T01:21:15.554Z,4.70
2023-03-24T01:22:15.553Z,4.60
2023-03-24T01:23:15.587Z,4.80
2023-03-24T01:24:15.538Z,4.10
2023-03-24T01:25:15.528Z,4.70
2023-03-24T01:26:15.571Z,4.40
2023-03-24T01:27:15.556Z,4.20
2023-03-24T01:28:15.511Z,3.90
2023-03-24T01:29:15.550Z,4.10
2023-03-24T01:30:15.548Z,4.20
2023-03-24T01:31:15.655Z,4.10
2023-03-24T01:32:15.513Z,3.50
2023-03-24T01:33:15.479Z,3.80
2023-03-24T01:34:15.551Z,4.10
2023-03-24T01:35:15.720Z,4.10
2023-03-24T01:36:15.486Z,3.70
2023-03-24T01:37:15.437Z,4.60
2023-03-24T01:38:15.469Z,4.60
2023-03-24T01:39:15.473Z,5.10
2023-03-24T01:40:15.444Z,5.30
2023-03-24T01:41:15.455Z,5.40
2023-03-24T01:42:36.393Z,5.90
2023-03-24T01:43:15.399Z,6.90
2023-03-24T01:44:15.391Z,6.40
2023-03-24T01:45:15.376Z,7.20
2023-03-24T01:46:15.444Z,7.30
2023-03-24T01:47:15.392Z,7.80
2023-03-24T01:48:15.411Z,9.00
2023-03-24T01:49:15.360Z,9.00
2023-03-24T01:50:15.354Z,9.70
2023-03-24T01:51:15.328Z,9.40
2023-03-24T01:52:15.362Z,9.00
2023-03-24T01:53:15.383Z,9.70
2023-03-24T01:54:15.322Z,10.50
2023-03-24T01:55:15.305Z,10.40
2023-03-24T01:56:15.292Z,11.00
2023-03-24T01:57:15.376Z,10.50
2023-03-24T01:58:15.300Z,10.60
2023-03-24T01:59:15.320Z,10.50
2023-03-24T02:00:15.273Z,10.50
2023-03-24T02:01:15.310Z,10.90
2023-03-24T02:02:15.277Z,11.20
2023-03-24T02:03:15.258Z,11.40
2023-03-24T02:04:15.289Z,11.20
2023-03-24T02:05:15.274Z,11.40
2023-03-24T02:06:15.248Z,11.90
2023-03-24T02:07:15.224Z,11.80
2023-03-24T02:08:15.234Z,11.10
2023-03-24T02:09:15.208Z,11.30
2023-03-24T02:10:15.204Z,12.00
2023-03-24T02:11:15.251Z,11.40
2023-03-24T02:12:15.188Z,11.40
2023-03-24T02:13:15.201Z,12.40
2023-03-24T02:14:15.182Z,11.40
2023-03-24T02:15:15.184Z,10.80
2023-03-24T02:16:15.189Z,11.50
2023-03-24T02:17:15.208Z,12.30
2023-03-24T02:18:15.160Z,11.60
2023-03-24T02:19:15.139Z,11.00
2023-03-24T02:20:15.179Z,10.30
2023-03-24T02:21:15.124Z,11.30
2023-03-24T02:22:15.110Z,11.40
2023-03-24T02:23:15.163Z,10.90
2023-03-24T02:24:15.154Z,11.10
2023-03-24T02:25:15.103Z,11.30
2023-03-24T02:26:15.165Z,11.50
2023-03-24T02:27:15.117Z,11.20
2023-03-24T02:28:15.093Z,11.50
2023-03-24T02:29:15.133Z,11.40
2023-03-24T02:30:15.063Z,11.40
2023-03-24T02:31:38.662Z,11.00
2023-03-24T02:32:15.070Z,10.30
2023-03-24T02:33:15.039Z,10.90
2023-03-24T02:34:15.028Z,10.20
2023-03-24T02:35:15.076Z,10.60
2023-03-24T02:36:15.096Z,10.90
2023-03-24T02:37:15.010Z,11.60
2023-03-24T02:38:15.012Z,10.60
2023-03-24T02:39:15.001Z,10.60
2023-03-24T02:40:15.009Z,11.10
2023-03-24T02:41:15.230Z,10.90
2023-03-24T02:42:14.978Z,12.00
2023-03-24T02:43:14.973Z,10.00
2023-03-24T02:44:14.951Z,10.80
2023-03-24T02:45:14.953Z,11.30
2023-03-24T02:46:14.975Z,10.50
2023-03-24T02:47:14.976Z,11.10
2023-03-24T02:48:14.923Z,11.30
2023-03-24T02:49:14.928Z,10.70
2023-03-24T02:50:14.921Z,11.10
2023-03-24T02:51:14.905Z,11.40
2023-03-24T02:52:14.905Z,11.10
2023-03-24T02:53:14.929Z,11.20
2023-03-24T02:54:14.890Z,11.10
2023-03-24T02:55:14.881Z,10.80
2023-03-24T02:56:14.876Z,10.70
2023-03-24T02:57:14.844Z,10.80
2023-03-24T02:58:14.886Z,11.10
2023-03-24T02:59:14.885Z,10.00
2023-03-24T03:00:14.840Z,11.30
2023-03-24T03:01:14.827Z,10.40
2023-03-24T03:02:14.806Z,9.60
2023-03-24T03:03:14.798Z,9.70
2023-03-24T03:04:14.847Z,10.00
2023-03-24T03:05:14.808Z,10.60
2023-03-24T03:06:14.801Z,10.60
2023-03-24T03:07:14.790Z,10.40
2023-03-24T03:08:14.764Z,10.80
2023-03-24T03:09:14.764Z,11.00
2023-03-24T03:10:14.736Z,10.50
2023-03-24T03:11:14.769Z,10.50
2023-03-24T03:12:14.741Z,10.40
2023-03-24T03:13:14.724Z,10.50
2023-03-24T03:14:14.721Z,9.80
2023-03-24T03:15:14.709Z,10.20
2023-03-24T03:16:14.757Z,12.10
2023-03-24T03:17:14.718Z,9.70
2023-03-24T03:18:14.676Z,9.50
2023-03-24T03:19:14.681Z,9.90
2023-03-24T03:20:14.662Z,9.60
2023-03-24T03:21:14.656Z,10.40
2023-03-24T03:22:14.668Z,10.00
2023-03-24T03:23:14.694Z,10.40
2023-03-24T03:24:14.649Z,9.50
2023-03-24T03:25:14.623Z,9.80
2023-03-24T03:26:14.630Z,10.00
2023-03-24T03:27:14.633Z,9.70
2023-03-24T03:28:14.605Z,9.90
2023-03-24T03:29:14.647Z,9.40
2023-03-24T03:30:14.614Z,9.50
2023-03-24T03:31:14.634Z,9.90
2023-03-24T03:32:14.583Z,9.90
2023-03-24T03:33:14.616Z,9.20
2023-03-24T03:34:15.093Z,9.20
2023-03-24T03:35:14.621Z,9.40
2023-03-24T03:36:14.619Z,8.50
2023-03-24T03:37:14.552Z,9.30
2023-03-24T03:38:14.572Z,10.20
2023-03-24T03:39:14.541Z,8.90
2023-03-24T03:40:14.543Z,9.30
2023-03-24T03:41:14.577Z,8.80
2023-03-24T03:42:14.507Z,8.80
2023-03-24T03:43:14.496Z,9.10
2023-03-24T03:44:14.516Z,8.50
2023-03-24T03:45:14.506Z,9.40
2023-03-24T03:46:14.531Z,8.90
2023-03-24T03:47:14.734Z,8.70
2023-03-24T03:48:14.471Z,8.20
2023-03-24T03:49:14.457Z,8.30
2023-03-24T03:50:14.500Z,8.10
2023-03-24T03:51:14.683Z,7.70
2023-03-24T03:52:14.458Z,8.40
2023-03-24T03:53:14.459Z,8.20
2023-03-24T03:54:14.410Z,7.60
2023-03-24T03:55:14.425Z,7.40
2023-03-24T03:56:14.414Z,7.70
2023-03-24T03:57:14.375Z,7.20
2023-03-24T03:58:14.403Z,7.10
2023-03-24T03:59:14.442Z,7.10
2023-03-24T04:00:14.389Z,7.40
2023-03-24T04:01:14.366Z,6.70
2023-03-24T04:02:14.397Z,6.40
2023-03-24T04:03:14.517Z,6.50
2023-03-24T04:04:14.343Z,6.40
2023-03-24T04:05:14.355Z,6.40
2023-03-24T04:06:14.411Z,6.70
2023-03-24T04:07:14.315Z,6.60
2023-03-24T04:08:14.335Z,6.30
2023-03-24T04:09:14.307Z,6.50
2023-03-24T04:10:14.312Z,5.80
2023-03-24T04:11:14.334Z,6.10
2023-03-24T04:12:14.291Z,6.00
2023-03-24T04:13:14.277Z,5.70
2023-03-24T04:14:14.287Z,5.70
2023-03-24T04:15:14.239Z,6.10
2023-03-24T04:16:14.267Z,5.60
2023-03-24T04:17:14.330Z,6.10
2023-03-24T04:18:14.251Z,5.40
2023-03-24T04:19:14.225Z,5.10
2023-03-24T04:20:14.266Z,5.40
2023-03-24T04:21:14.220Z,5.70
2023-03-24T04:22:14.203Z,5.30
2023-03-24T04:23:14.542Z,5.60
2023-03-24T04:24:14.227Z,6.00
2023-03-24T04:25:14.196Z,5.50
2023-03-24T04:26:14.175Z,5.50
2023-03-24T04:27:14.173Z,5.70
2023-03-24T04:28:14.180Z,5.80
2023-03-24T04:29:14.180Z,5.90
2023-03-24T04:30:16.515Z,5.50
2023-03-24T04:31:14.234Z,5.60
2023-03-24T04:32:14.139Z,5.40
2023-03-24T04:33:14.148Z,9.30
2023-03-24T04:34:14.113Z,5.90
2023-03-24T04:35:14.163Z,5.70
2023-03-24T04:36:14.094Z,5.90
2023-03-24T04:37:14.112Z,5.90
2023-03-24T04:38:14.068Z,5.90
2023-03-24T04:39:14.082Z,6.10
2023-03-24T04:40:14.065Z,5.80
2023-03-24T04:41:14.735Z,5.90
2023-03-24T04:42:14.077Z,6.10
2023-03-24T04:43:14.074Z,5.80
2023-03-24T04:44:14.055Z,5.80
2023-03-24T04:45:14.043Z,6.10
2023-03-24T04:46:14.082Z,5.90
2023-03-24T04:47:14.060Z,5.90
2023-03-24T04:48:14.000Z,5.80
2023-03-24T04:49:14.042Z,5.90
2023-03-24T04:50:13.982Z,5.80
2023-03-24T04:51:13.991Z,6.40
2023-03-24T04:52:14.923Z,6.30
2023-03-24T04:53:14.476Z,5.90
2023-03-24T04:54:13.983Z,6.10
2023-03-24T04:55:13.958Z,5.90
2023-03-24T04:56:13.966Z,6.20
2023-03-24T04:57:13.976Z,6.70
2023-03-24T04:58:13.941Z,6.20
2023-03-24T04:59:13.955Z,6.00
2023-03-24T05:00:13.932Z,6.20
2023-03-24T05:01:13.983Z,5.80
2023-03-24T05:02:54.063Z,5.90
2023-03-24T05:03:14.913Z,6.40
2023-03-24T05:04:14.033Z,6.20
2023-03-24T05:05:13.953Z,5.90
2023-03-24T05:06:24.040Z,6.30
2023-03-24T05:07:13.885Z,6.20
2023-03-24T05:08:13.878Z,6.30
2023-03-24T05:09:13.851Z,6.10
2023-03-24T05:10:13.853Z,6.30
2023-03-24T05:11:13.881Z,6.60
2023-03-24T05:12:13.819Z,6.10
2023-03-24T05:13:13.828Z,6.60
2023-03-24T05:14:13.835Z,6.50
2023-03-24T05:15:13.807Z,6.20
2023-03-24T05:16:13.826Z,6.50
2023-03-24T05:17:13.847Z,6.50
2023-03-24T05:18:13.808Z,6.40
2023-03-24T05:19:13.780Z,6.80
2023-03-24T05:20:13.792Z,6.70
2023-03-24T05:21:13.767Z,6.40
2023-03-24T05:22:13.750Z,6.20
2023-03-24T05:23:13.789Z,7.10
2023-03-24T05:24:13.741Z,6.50
2023-03-24T05:25:13.754Z,6.50
2023-03-24T05:26:13.731Z,6.50
2023-03-24T05:27:13.731Z,6.50
2023-03-24T05:28:13.710Z,6.30
2023-03-24T05:29:13.740Z,6.60
2023-03-24T05:30:13.721Z,6.80
2023-03-24T05:31:13.741Z,7.00
2023-03-24T05:32:13.676Z,6.60
2023-03-24T05:33:13.730Z,8.00
2023-03-24T05:34:13.676Z,6.40
2023-03-24T05:35:13.689Z,7.00
2023-03-24T05:36:13.702Z,6.20
2023-03-24T05:37:13.650Z,5.90
2023-03-24T05:38:13.644Z,6.30
2023-03-24T05:39:13.636Z,6.20
2023-03-24T05:40:13.649Z,6.00
2023-03-24T05:41:13.657Z,6.00
2023-03-24T05:42:13.641Z,6.80
2023-03-24T05:43:13.613Z,6.10
2023-03-24T05:44:13.591Z,5.80
2023-03-24T05:45:13.586Z,6.40
2023-03-24T05:46:13.749Z,5.90
2023-03-24T05:47:13.600Z,6.20
2023-03-24T05:48:13.569Z,6.30
2023-03-24T05:49:13.550Z,6.50
2023-03-24T05:50:13.553Z,5.90
2023-03-24T05:51:13.540Z,5.20
2023-03-24T05:52:13.531Z,5.90
2023-03-24T05:53:13.564Z,6.10
2023-03-24T05:54:13.508Z,5.50
2023-03-24T05:55:13.526Z,5.90
2023-03-24T05:56:13.498Z,5.90
2023-03-24T05:57:13.490Z,5.80
2023-03-24T05:58:13.482Z,5.80
2023-03-24T05:59:13.926Z,5.90
2023-03-24T06:00:13.458Z,5.80
2023-03-24T06:01:13.482Z,5.50
2023-03-24T06:02:13.501Z,5.40
2023-03-24T06:03:13.571Z,5.50
2023-03-24T06:04:13.470Z,5.10
2023-03-24T06:05:19.281Z,5.90
2023-03-24T06:06:13.424Z,5.40
2023-03-24T06:07:13.408Z,5.40
2023-03-24T06:08:13.413Z,5.80
2023-03-24T06:09:13.404Z,5.10
2023-03-24T06:10:13.415Z,5.20
2023-03-24T06:11:13.409Z,5.00
2023-03-24T06:12:13.393Z,5.30
2023-03-24T06:13:13.384Z,5.40
2023-03-24T06:14:13.403Z,4.80
2023-03-24T06:15:13.353Z,4.80
2023-03-24T06:16:13.420Z,5.60
2023-03-24T06:17:13.382Z,5.20
2023-03-24T06:18:13.364Z,5.10
2023-03-24T06:19:13.319Z,4.80
2023-03-24T06:20:13.363Z,4.90
2023-03-24T06:21:13.397Z,4.60
2023-03-24T06:22:13.309Z,5.00
2023-03-24T06:23:13.351Z,5.40
2023-03-24T06:24:13.281Z,4.70
2023-03-24T06:25:13.288Z,5.00
2023-03-24T06:26:13.290Z,4.90
2023-03-24T06:27:13.262Z,4.70
2023-03-24T06:28:13.249Z,4.40
2023-03-24T06:29:13.292Z,4.00
2023-03-24T06:30:13.237Z,4.80
2023-03-24T06:31:13.254Z,4.30
2023-03-24T06:32:13.258Z,4.40
2023-03-24T06:33:13.280Z,4.10
2023-03-24T06:34:13.214Z,4.20
2023-03-24T06:35:13.233Z,3.60
2023-03-24T06:36:13.258Z,3.70
2023-03-24T06:37:13.166Z,3.80
2023-03-24T06:38:13.169Z,3.80
2023-03-24T06:39:13.217Z,3.40
2023-03-24T06:40:13.185Z,3.40
2023-03-24T06:41:13.203Z,3.70
2023-03-24T06:42:13.161Z,3.70
2023-03-24T06:43:13.150Z,3.20
2023-03-24T06:44:13.130Z,3.00
2023-03-24T06:45:13.141Z,3.30
2023-03-24T06:46:13.118Z,3.40
2023-03-24T06:47:13.159Z,3.10
2023-03-24T06:48:13.159Z,3.00
2023-03-24T06:49:13.125Z,2.90
2023-03-24T06:50:13.081Z,2.80
2023-03-24T06:51:13.119Z,2.90
2023-03-24T06:52:13.087Z,2.50
2023-03-24T06:53:13.134Z,2.50
2023-03-24T06:54:13.070Z,2.70
2023-03-24T06:55:13.079Z,2.70
2023-03-24T06:56:13.042Z,2.80
2023-03-24T06:57:13.143Z,2.30
2023-03-24T06:58:13.033Z,2.50
2023-03-24T06:59:13.092Z,2.50
2023-03-24T07:00:13.014Z,2.30
2023-03-24T07:01:13.014Z,2.50
2023-03-24T07:02:13.008Z,2.40
2023-03-24T07:03:13.071Z,2.20
2023-03-24T07:04:13.136Z,2.50
2023-03-24T07:05:13.479Z,2.20
2023-03-24T07:06:12.983Z,2.20
2023-03-24T07:08:34.109Z,2.20
2023-03-24T07:09:13.971Z,1.90
2023-03-24T07:10:12.936Z,2.20
2023-03-24T07:11:12.994Z,2.20
2023-03-24T07:12:14.590Z,2.40
2023-03-24T07:13:12.919Z,2.30
2023-03-24T07:14:12.905Z,2.30
2023-03-24T07:15:12.908Z,2.50
2023-03-24T07:16:12.979Z,2.20
2023-03-24T07:17:12.933Z,2.40
2023-03-24T07:18:12.904Z,2.00
2023-03-24T07:19:12.862Z,2.20
2023-03-24T07:20:12.892Z,2.10
2023-03-24T07:21:12.947Z,2.40
2023-03-24T07:22:12.866Z,2.20
2023-03-24T07:23:12.883Z,2.10
2023-03-24T07:24:12.865Z,2.10
2023-03-24T07:25:12.825Z,2.40
2023-03-24T07:26:12.818Z,2.20
2023-03-24T07:27:12.818Z,4.10
2023-03-24T07:28:12.827Z,2.30
2023-03-24T07:29:12.868Z,2.40
2023-03-24T07:30:12.815Z,1.50
2023-03-24T07:31:12.840Z,1.30
2023-03-24T07:32:12.803Z,1.00
2023-03-24T07:33:12.908Z,0.90
2023-03-24T07:34:12.779Z,0.80
2023-03-24T07:35:12.790Z,0.90
2023-03-24T07:36:12.749Z,1.10
2023-03-24T07:37:12.742Z,0.90
2023-03-24T07:38:12.744Z,0.80
2023-03-24T07:39:12.828Z,1.00
2023-03-24T07:40:12.753Z,0.90
2023-03-24T07:41:12.765Z,1.00
2023-03-24T07:42:13.152Z,0.80
2023-03-24T07:43:12.751Z,0.90
2023-03-24T07:44:12.682Z,1.00
2023-03-24T07:45:12.696Z,1.00
2023-03-24T07:46:12.706Z,0.90
2023-03-24T07:47:12.716Z,1.00
2023-03-24T07:48:12.664Z,1.10
2023-03-24T07:49:18.680Z,1.20
2023-03-24T07:50:13.661Z,1.30
2023-03-24T07:51:12.628Z,1.00
2023-03-24T07:52:12.643Z,1.20
2023-03-24T07:53:12.655Z,1.60
2023-03-24T07:54:12.621Z,1.40
2023-03-24T07:55:12.637Z,1.40
2023-03-24T07:56:12.597Z,1.30
2023-03-24T07:57:12.611Z,1.10
2023-03-24T07:58:12.578Z,1.20
2023-03-24T07:59:14.452Z,1.00
2023-03-24T08:00:12.598Z,1.00
2023-03-24T08:01:12.597Z,1.10
2023-03-24T08:02:12.597Z,1.40
2023-03-24T08:03:12.706Z,1.10
2023-03-24T08:04:12.615Z,1.20
2023-03-24T08:05:12.594Z,1.10
2023-03-24T08:06:12.517Z,1.20
2023-03-24T08:07:12.518Z,1.10
2023-03-24T08:08:12.512Z,1.00
2023-03-24T08:09:12.520Z,1.10
2023-03-24T08:10:12.503Z,1.40
2023-03-24T08:11:12.970Z,1.10
2023-03-24T08:12:20.113Z,1.00
2023-03-24T08:13:13.494Z,1.10
2023-03-24T08:14:12.489Z,1.00
2023-03-24T08:15:12.476Z,1.20
2023-03-24T08:16:12.496Z,1.20
2023-03-24T08:17:12.500Z,1.20
2023-03-24T08:18:12.518Z,1.30
2023-03-24T08:19:12.441Z,1.20
2023-03-24T08:20:12.463Z,1.30
2023-03-24T08:21:12.421Z,1.40
2023-03-24T08:22:12.404Z,8.50
2023-03-24T08:23:12.512Z,1.30
2023-03-24T08:24:12.435Z,1.10
2023-03-24T08:25:12.402Z,1.30
2023-03-24T08:26:12.395Z,1.30
2023-03-24T08:27:12.388Z,1.50
2023-03-24T08:28:12.437Z,1.30
2023-03-24T08:29:12.398Z,1.20
2023-03-24T08:30:12.378Z,2.90
2023-03-24T08:31:12.456Z,1.30
2023-03-24T08:32:12.384Z,1.50
2023-03-24T08:33:12.664Z,1.70
2023-03-24T08:34:12.322Z,1.30
2023-03-24T08:35:12.368Z,1.50
2023-03-24T08:36:12.387Z,1.10
2023-03-24T08:37:12.331Z,1.20
2023-03-24T08:38:12.287Z,1.20
2023-03-24T08:39:12.306Z,1.10
2023-03-24T08:40:12.312Z,1.80
2023-03-24T08:41:12.316Z,1.30
2023-03-24T08:42:12.255Z,1.20
2023-03-24T08:43:12.255Z,2.10
2023-03-24T08:44:12.245Z,2.30
2023-03-24T08:45:12.257Z,1.20
2023-03-24T08:46:14.029Z,1.30
2023-03-24T08:47:12.250Z,1.80
2023-03-24T08:48:12.322Z,1.30
2023-03-24T08:49:12.217Z,1.20
2023-03-24T08:50:12.232Z,1.40
2023-03-24T08:51:12.217Z,1.40
2023-03-24T08:52:12.209Z,1.30
2023-03-24T08:53:12.205Z,1.30
2023-03-24T08:54:12.195Z,1.80
2023-03-24T08:55:12.156Z,1.40
2023-03-24T08:56:12.182Z,1.50
2023-03-24T08:57:12.170Z,1.40
2023-03-24T08:58:12.153Z,1.30
2023-03-24T08:59:12.191Z,1.60
2023-03-24T09:00:12.149Z,1.90
2023-03-24T09:01:12.152Z,2.00
2023-03-24T09:02:12.146Z,2.20
2023-03-24T09:03:12.195Z,1.90
2023-03-24T09:04:12.112Z,2.50
2023-03-24T09:05:12.131Z,2.10
2023-03-24T09:06:12.260Z,3.40
2023-03-24T09:07:12.100Z,1.90
2023-03-24T09:08:12.073Z,2.10
2023-03-24T09:09:12.070Z,2.90
2023-03-24T09:10:12.139Z,2.20
2023-03-24T09:11:12.089Z,2.00
2023-03-24T09:12:12.091Z,2.50
2023-03-24T09:13:12.041Z,1.90
2023-03-24T09:14:12.022Z,2.10
2023-03-24T09:15:13.333Z,1.80
2023-03-24T09:16:12.058Z,1.90
2023-03-24T09:17:12.520Z,2.10
2023-03-24T09:18:12.008Z,2.10
2023-03-24T09:19:11.996Z,2.20
2023-03-24T09:20:12.018Z,2.80
2023-03-24T09:21:12.010Z,1.80
2023-03-24T09:22:12.004Z,1.70
2023-03-24T09:23:12.022Z,1.90
2023-03-24T09:24:11.968Z,1.90
2023-03-24T09:25:11.947Z,2.10
2023-03-24T09:26:11.989Z,1.80
2023-03-24T09:27:11.955Z,2.50
2023-03-24T09:28:11.980Z,2.10
2023-03-24T09:29:11.996Z,2.20
2023-03-24T09:30:11.954Z,2.40
2023-03-24T09:31:11.952Z,1.90
2023-03-24T09:32:11.885Z,2.30
2023-03-24T09:33:11.901Z,2.00
2023-03-24T09:34:11.875Z,2.20
2023-03-24T09:35:11.913Z,2.20
2023-03-24T09:36:12.010Z,2.50
2023-03-24T09:37:11.878Z,2.40
2023-03-24T09:38:11.885Z,2.50
2023-03-24T09:39:11.875Z,2.30
2023-03-24T09:40:11.844Z,2.30
2023-03-24T09:41:11.867Z,2.80
2023-03-24T09:42:11.860Z,2.50
2023-03-24T09:43:11.850Z,2.40
2023-03-24T09:44:11.805Z,3.20
2023-03-24T09:45:11.808Z,2.80
2023-03-24T09:46:11.826Z,2.70
2023-03-24T09:47:11.820Z,2.90
2023-03-24T09:48:11.853Z,3.00
2023-03-24T09:49:11.788Z,2.50
2023-03-24T09:50:11.757Z,3.50
2023-03-24T09:51:11.765Z,3.00
2023-03-24T09:52:11.747Z,2.90
2023-03-24T09:53:11.805Z,3.00
2023-03-24T09:54:11.734Z,3.00
2023-03-24T09:55:11.726Z,2.80
2023-03-24T09:56:11.717Z,2.60
2023-03-24T09:57:11.733Z,2.90
2023-03-24T09:58:11.713Z,2.80
2023-03-24T09:59:11.737Z,3.00
2023-03-24T10:00:11.682Z,2.90
2023-03-24T10:01:11.709Z,2.80
2023-03-24T10:02:11.679Z,2.70
2023-03-24T10:03:11.826Z,2.70
2023-03-24T10:04:11.779Z,3.00
2023-03-24T10:05:11.723Z,3.30
2023-03-24T10:06:11.697Z,2.90
2023-03-24T10:07:11.652Z,2.70
2023-03-24T10:08:14.482Z,2.40
2023-03-24T10:09:11.625Z,3.00
2023-03-24T10:10:11.622Z,3.20
2023-03-24T10:11:11.660Z,3.00
2023-03-24T10:12:11.611Z,3.20
2023-03-24T10:13:11.609Z,3.40
2023-03-24T10:14:11.599Z,3.90
2023-03-24T10:15:11.607Z,3.00
2023-03-24T10:16:11.637Z,3.40
2023-03-24T10:17:11.643Z,2.80
2023-03-24T10:18:11.621Z,3.10
2023-03-24T10:19:11.612Z,2.80
2023-03-24T10:20:11.548Z,2.20
2023-03-24T10:21:11.546Z,2.30
2023-03-24T10:22:11.549Z,2.40
2023-03-24T10:23:12.112Z,2.20
2023-03-24T10:24:11.527Z,2.00
2023-03-24T10:25:11.595Z,1.90
2023-03-24T10:26:11.553Z,1.90
2023-03-24T10:27:11.506Z,2.00
2023-03-24T10:28:11.549Z,2.20
2023-03-24T10:29:11.691Z,3.10
2023-03-24T10:30:11.558Z,2.10
2023-03-24T10:31:11.478Z,2.50
2023-03-24T10:32:11.457Z,3.20
2023-03-24T10:33:11.506Z,2.00
2023-03-24T10:34:11.468Z,2.20
2023-03-24T10:35:11.518Z,2.60
2023-03-24T10:36:11.474Z,2.70
2023-03-24T10:37:11.428Z,2.40
2023-03-24T10:38:11.432Z,2.30
2023-03-24T10:39:19.070Z,2.50
2023-03-24T10:40:12.466Z,2.20
2023-03-24T10:41:11.395Z,2.40
2023-03-24T10:42:11.377Z,2.50
2023-03-24T10:43:11.378Z,2.70
2023-03-24T10:44:11.368Z,2.60
2023-03-24T10:45:11.360Z,2.50
2023-03-24T10:46:11.401Z,2.30
2023-03-24T10:47:11.376Z,2.50
2023-03-24T10:48:11.364Z,2.40
2023-03-24T10:49:11.339Z,2.50
2023-03-24T10:50:14.323Z,2.60
2023-03-24T10:51:11.351Z,2.70
2023-03-24T10:52:11.373Z,2.60
2023-03-24T10:53:11.303Z,2.70
2023-03-24T10:54:11.337Z,3.40
2023-03-24T10:55:11.439Z,2.60
2023-03-24T10:56:11.336Z,2.60
2023-03-24T10:57:11.443Z,2.50
2023-03-24T10:58:11.343Z,2.30
2023-03-24T10:59:11.319Z,2.30
2023-03-24T11:00:11.284Z,2.40
2023-03-24T11:01:11.291Z,2.20
2023-03-24T11:02:11.277Z,2.70
2023-03-24T11:03:11.363Z,2.50
2023-03-24T11:04:11.305Z,2.20
2023-03-24T11:05:11.321Z,2.40
2023-03-24T11:06:11.245Z,2.70
2023-03-24T11:07:11.184Z,2.40
2023-03-24T11:08:11.239Z,2.50
2023-03-24T11:09:11.204Z,2.40
2023-03-24T11:10:11.211Z,2.70
2023-03-24T11:11:11.154Z,2.50
2023-03-24T11:12:11.168Z,1.90
2023-03-24T11:13:11.153Z,2.30
2023-03-24T11:14:11.260Z,2.20
2023-03-24T11:15:20.188Z,2.10
2023-03-24T11:16:12.335Z,2.30
2023-03-24T11:17:11.185Z,2.20
2023-03-24T11:18:11.133Z,4.40
2023-03-24T11:19:11.203Z,2.40
2023-03-24T11:20:11.129Z,2.10
2023-03-24T11:21:11.073Z,2.60
2023-03-24T11:22:11.145Z,2.00
2023-03-24T11:23:11.079Z,2.30
2023-03-24T11:24:11.096Z,2.30
2023-03-24T11:25:11.136Z,2.60
2023-03-24T11:26:11.077Z,2.40
2023-03-24T11:27:11.071Z,2.20
2023-03-24T11:28:11.586Z,2.10
2023-03-24T11:29:11.036Z,1.70
2023-03-24T11:30:11.016Z,2.20
2023-03-24T11:31:11.122Z,2.10
2023-03-24T11:32:11.126Z,2.10
2023-03-24T11:33:11.019Z,1.90
2023-03-24T11:34:11.056Z,2.00
2023-03-24T11:35:11.027Z,2.20
2023-03-24T11:36:11.325Z,1.90
2023-03-24T11:37:10.986Z,1.80
2023-03-24T11:38:11.022Z,1.50
2023-03-24T11:39:10.963Z,2.60
2023-03-24T11:40:11.005Z,2.10
2023-03-24T11:41:10.984Z,1.80
2023-03-24T11:42:10.984Z,2.00
2023-03-24T11:43:10.939Z,1.90
2023-03-24T11:44:10.913Z,2.00
2023-03-24T11:45:11.011Z,2.10
2023-03-24T11:46:11.004Z,1.80
2023-03-24T11:47:10.900Z,1.80
2023-03-24T11:48:10.941Z,1.80
2023-03-24T11:49:10.912Z,2.10
2023-03-24T11:50:10.993Z,2.20
2023-03-24T11:51:10.876Z,1.90
2023-03-24T11:52:10.892Z,2.20
2023-03-24T11:53:10.930Z,1.90
2023-03-24T11:54:10.903Z,2.00
2023-03-24T11:55:10.913Z,1.90
2023-03-24T11:56:10.834Z,2.20
2023-03-24T11:57:10.856Z,1.60
2023-03-24T11:58:10.872Z,1.70
2023-03-24T11:59:10.864Z,1.70
2023-03-24T12:00:10.855Z,1.80
2023-03-24T12:01:10.845Z,2.10
2023-03-24T12:02:10.798Z,3.70
2023-03-24T12:03:10.907Z,2.20
2023-03-24T12:04:10.844Z,3.50
2023-03-24T12:05:10.836Z,2.00
2023-03-24T12:06:10.776Z,2.10
2023-03-24T12:07:10.745Z,2.20
2023-03-24T12:08:10.746Z,1.60
2023-03-24T12:09:13.867Z,2.00
2023-03-24T12:10:10.848Z,1.90
2023-03-24T12:11:10.727Z,2.00
2023-03-24T12:12:10.806Z,2.10
2023-03-24T12:13:22.089Z,1.90
2023-03-24T12:14:11.826Z,1.80
2023-03-24T12:15:24.601Z,1.90
2023-03-24T12:16:11.870Z,1.90
2023-03-24T12:17:10.779Z,1.70
2023-03-24T12:18:10.786Z,1.80
2023-03-24T12:19:10.710Z,1.80
2023-03-24T12:20:10.730Z,2.00
2023-03-24T12:21:11.777Z,1.90
2023-03-24T12:22:13.959Z,1.60
2023-03-24T12:23:10.643Z,1.20
2023-03-24T12:24:10.658Z,1.70
2023-03-24T12:25:10.656Z,1.40
2023-03-24T12:26:10.662Z,1.40
2023-03-24T12:27:10.682Z,1.70
2023-03-24T12:28:10.781Z,1.70
2023-03-24T12:29:10.696Z,1.40
2023-03-24T12:30:10.587Z,3.60
2023-03-24T12:31:10.648Z,1.80
2023-03-24T12:32:10.616Z,3.00
2023-03-24T12:33:10.598Z,1.90
2023-03-24T12:34:10.996Z,1.50
2023-03-24T12:35:10.622Z,2.20
2023-03-24T12:36:10.619Z,1.40
2023-03-24T12:37:10.608Z,1.60
2023-03-24T12:38:10.623Z,1.60
2023-03-24T12:39:10.597Z,1.80
2023-03-24T12:40:10.671Z,1.90
2023-03-24T12:41:10.599Z,2.30
2023-03-24T12:42:10.512Z,1.70
2023-03-24T12:43:10.498Z,2.40
2023-03-24T12:44:10.548Z,1.50
2023-03-24T12:45:10.461Z,1.60
2023-03-24T12:46:10.544Z,1.70
2023-03-24T12:47:10.453Z,1.50
2023-03-24T12:48:10.525Z,1.60
2023-03-24T12:49:10.440Z,1.60
2023-03-24T12:50:10.448Z,2.10
2023-03-24T12:51:10.439Z,1.80
2023-03-24T12:52:10.459Z,1.40
2023-03-24T12:53:12.011Z,1.40
2023-03-24T12:54:10.467Z,1.60
2023-03-24T12:55:10.405Z,1.50
2023-03-24T12:56:10.397Z,1.40
2023-03-24T12:57:10.396Z,1.80
2023-03-24T12:58:10.466Z,1.70
2023-03-24T12:59:10.371Z,1.60
2023-03-24T13:00:10.397Z,1.30
2023-03-24T13:01:10.483Z,1.40
2023-03-24T13:02:10.366Z,1.30
2023-03-24T13:03:10.405Z,1.60
2023-03-24T13:04:10.408Z,1.20
2023-03-24T13:05:10.337Z,1.40
2023-03-24T13:06:16.904Z,1.20
2023-03-24T13:07:11.388Z,1.30
2023-03-24T13:08:10.313Z,1.30
2023-03-24T13:09:10.399Z,1.50
2023-03-24T13:10:10.353Z,1.40
2023-03-24T13:11:13.184Z,1.40
2023-03-24T13:12:11.278Z,1.50
2023-03-24T13:13:11.210Z,1.70
2023-03-24T13:14:10.284Z,2.00
2023-03-24T13:15:10.267Z,2.80
2023-03-24T13:16:10.284Z,1.30